Mount Horeb, WI (53572)

7:23 AM CST on December 04, 2016 (GMT -0600)
Maple Dr. | | Change Station
Active Advisory: Winter Weather Advisory

Elev 1181 ft 43.00 °N, 89.74 °W | Updated 5 seconds ago

Overcast
Overcast
29.1 °F
Feels Like 29 °F
N
2.3
Wind Variable Wind from ENE
Gusts 7.0 mph

Today
High -- | Low -- °F
--% Chance of Precip.
Yesterday
High -- | Low -- °F
Precip. -- in
Pressure 30.10 in
Visibility 2.0 miles
Clouds Overcast 500 ft
Windchill 29 °F
Dew Point 25 °F
Humidity 84%
Rainfall 0.00 in
Snow Depth Not available.
7:14 AM 4:24 PM
Waxing Crescent, 22% visible
METAR KC29 041315Z AUTO 15006KT 2SM OVC005 00/00 A3010 RMK AO1 T00000000
Pressure 30.10 in
Visibility 2.0 miles
Clouds Overcast 500 ft
Windchill 29 °F
Dew Point 25 °F
Humidity 84%
Rainfall 0.00 in
Snow Depth Not available.
7:14 AM 4:24 PM
Waxing Crescent, 22% visible
METAR KC29 041315Z AUTO 15006KT 2SM OVC005 00/00 A3010 RMK AO1 T00000000

10-Day Weather Forecast

Almanac

Astronomy

Dec. 04, 2016 Rise Set
Actual Time
Civil Twilight
Nautical Twilight
Astronomical Twilight
Moon
Length of Visible Light
Length of Day
Tomorrow will be .
, % of the Moon is Illuminated

Today's Extremes

State Highs State Lows

Community

WunderPhotos

Upload Photos

1,955,593 photos uploaded!

WunderBlog® & News

Nearby

Air Quality

  Air Quality AQ Index Pollutant
Not available.

Snow Depth

Station Depth Elevation

Earthquake Activity

City Distance Mag. Time & Date
Minimum magnitude displayed is 2.5.

Coastal Water Temperatures

Place Temperature

Stations

Nearby Weather Stations

Station Location Temp. Windchill Dew Point Humidity Wind Precip. Elev Updated Type
                   

Watches & Warnings

Winter Weather Advisory
Issued: 6:51 AM CST Dec. 4, 2016 – National Weather Service

... Winter Weather Advisory remains in effect until 6 PM CST this
evening...

A Winter Weather Advisory remains in effect until 6 PM CST this
evening.

* Timing... snow... tapering off in the mid to late afternoon.

* Snow accumulations... 3 to 5 inches.

* Winds... south to southeast increasing to 10 to 15 mph with
gusts to 20 mph.

* Impacts... reduced visibility and slippery spots on untreated
roads creating hazardous travel.

Precautionary/preparedness actions...

A Winter Weather Advisory for snow means that periods of snow
will cause primarily travel difficulties. Be prepared for snow
covered roads and limited visibilities... and use caution while
driving.